Time;durP1;ratioP1;P1;durP2;ratioP2;P2;SDS_P1;SDS_P2;PMS_P1;PMS_P2;Temp;Humidity;BMP_temperature;BMP_pressure;BME280_temperature;BME280_humidity;BME280_pressure;Samples;Min_cycle;Max_cycle;Signal;HPM_P1;HPM_P2
2022/05/19 00:02:10;;;;;;;5.50;3.15;;;;;;;;;;7331270;19;162026;-18
2022/05/19 00:04:45;;;;;;;4.47;2.92;;;;;;;;;;7330946;19;162359;-18
2022/05/19 00:07:17;;;;;;;4.20;2.78;;;;;;;;;;7329997;19;154007;-19
2022/05/19 00:09:49;;;;;;;7.22;3.30;;;;;;;;;;7330290;19;153539;-16
2022/05/19 00:12:23;;;;;;;5.18;3.15;;;;;;;;;;7330310;19;162169;-17
2022/05/19 00:14:55;;;;;;;4.55;2.70;;;;;;;;;;7329582;19;162375;-17
2022/05/19 00:17:26;;;;;;;5.25;3.20;;;;;;;;;;7332655;19;154164;-17
2022/05/19 00:20:00;;;;;;;5.13;2.80;;;;;;;;;;7334686;19;153698;-17
2022/05/19 00:22:31;;;;;;;5.82;3.40;;;;;;;;;;7330543;19;161855;-17
2022/05/19 00:25:03;;;;;;;4.78;3.15;;;;;;;;;;7330458;19;162499;-17
2022/05/19 00:27:34;;;;;;;5.15;3.00;;;;;;;;;;7332343;19;153754;-17
2022/05/19 00:30:06;;;;;;;3.83;2.53;;;;;;;;;;7328773;19;153393;-16
2022/05/19 00:32:38;;;;;;;5.85;3.22;;;;;;;;;;7329662;19;162004;-20
2022/05/19 00:35:12;;;;;;;7.63;3.38;;;;;;;;;;7329013;19;162483;-17
2022/05/19 00:37:43;;;;;;;6.95;3.08;;;;;;;;;;7330447;19;154185;-18
2022/05/19 00:40:15;;;;;;;5.57;2.72;;;;;;;;;;7330344;19;153582;-17
2022/05/19 00:42:46;;;;;;;4.18;2.65;;;;;;;;;;7329723;19;161973;-17
2022/05/19 00:45:20;;;;;;;5.55;3.08;;;;;;;;;;7328515;19;162541;-17
2022/05/19 00:47:55;;;;;;;4.75;2.88;;;;;;;;;;7330105;19;154116;-17
2022/05/19 00:50:33;;;;;;;4.82;2.70;;;;;;;;;;7329971;19;153866;-17
2022/05/19 00:53:08;;;;;;;4.15;2.80;;;;;;;;;;7328677;19;161883;-18
2022/05/19 00:55:44;;;;;;;4.95;2.00;;;;;;;;;;7329649;19;162441;-17
2022/05/19 00:58:19;;;;;;;5.60;2.67;;;;;;;;;;7329755;19;154222;-17
2022/05/19 01:00:50;;;;;;;5.15;2.50;;;;;;;;;;7329713;19;153509;-17
2022/05/19 01:03:25;;;;;;;5.32;2.50;;;;;;;;;;7329368;19;162005;-18
2022/05/19 01:06:04;;;;;;;3.83;2.50;;;;;;;;;;7329242;19;162479;-17
2022/05/19 01:08:42;;;;;;;4.80;2.50;;;;;;;;;;7326998;19;154282;-17
2022/05/19 01:11:14;;;;;;;3.95;2.53;;;;;;;;;;7329449;19;153552;-17
2022/05/19 01:13:45;;;;;;;4.27;2.07;;;;;;;;;;7327612;19;161874;-17
2022/05/19 01:16:18;;;;;;;5.00;2.70;;;;;;;;;;7329017;19;162376;-17
2022/05/19 01:18:50;;;;;;;5.65;2.72;;;;;;;;;;7329366;19;154269;-17
2022/05/19 01:21:24;;;;;;;5.93;2.43;;;;;;;;;;7328130;19;153783;-17
2022/05/19 01:24:09;;;;;;;4.85;2.53;;;;;;;;;;7328672;19;161997;-17
2022/05/19 01:26:48;;;;;;;6.45;2.58;;;;;;;;;;7328708;19;162299;-18
2022/05/19 01:29:22;;;;;;;3.55;2.10;;;;;;;;;;7329023;19;154107;-17
2022/05/19 01:31:57;;;;;;;3.03;2.22;;;;;;;;;;7327776;19;153721;-17
2022/05/19 01:34:32;;;;;;;3.03;1.83;;;;;;;;;;7326566;19;161905;-17
2022/05/19 01:37:03;;;;;;;3.40;2.40;;;;;;;;;;7327175;19;162638;-17
2022/05/19 01:39:47;;;;;;;3.08;2.10;;;;;;;;;;7328889;19;154265;-17
2022/05/19 01:42:32;;;;;;;2.72;2.10;;;;;;;;;;7335243;19;153534;-18
2022/05/19 01:45:10;;;;;;;4.28;2.30;;;;;;;;;;7335232;19;161850;-17
2022/05/19 01:47:48;;;;;;;3.65;2.20;;;;;;;;;;7335531;19;162833;-18
2022/05/19 01:50:27;;;;;;;4.28;1.98;;;;;;;;;;7339757;19;154239;-18
2022/05/19 01:53:04;;;;;;;3.83;2.00;;;;;;;;;;7335292;19;153559;-18
2022/05/19 01:55:47;;;;;;;4.82;2.25;;;;;;;;;;7334683;19;161853;-18
2022/05/19 01:58:26;;;;;;;3.78;2.50;;;;;;;;;;7334765;19;162389;-18
2022/05/19 02:01:01;;;;;;;2.15;1.83;;;;;;;;;;7334966;19;154279;-18
2022/05/19 02:03:42;;;;;;;2.38;1.80;;;;;;;;;;7334965;19;153936;-19
2022/05/19 02:06:18;;;;;;;4.35;2.35;;;;;;;;;;7334513;19;161851;-19
2022/05/19 02:08:53;;;;;;;2.97;2.25;;;;;;;;;;7334852;19;162576;-18
2022/05/19 02:11:30;;;;;;;2.20;1.73;;;;;;;;;;7333984;19;153987;-19
2022/05/19 02:14:08;;;;;;;2.53;2.25;;;;;;;;;;7333985;19;153461;-18
2022/05/19 02:16:40;;;;;;;3.58;2.00;;;;;;;;;;7334378;19;161914;-18
2022/05/19 02:19:13;;;;;;;3.25;2.30;;;;;;;;;;7334212;19;162396;-18
2022/05/19 02:21:44;;;;;;;2.70;1.90;;;;;;;;;;7334600;19;154077;-18
2022/05/19 02:24:20;;;;;;;2.28;1.90;;;;;;;;;;7334454;19;153521;-17
2022/05/19 02:26:52;;;;;;;2.45;2.00;;;;;;;;;;7333731;19;161821;-17
2022/05/19 02:29:27;;;;;;;3.72;2.28;;;;;;;;;;7333517;19;164250;-17
2022/05/19 02:31:58;;;;;;;2.63;1.92;;;;;;;;;;7334239;19;154005;-18
2022/05/19 02:34:29;;;;;;;3.33;1.90;;;;;;;;;;7333159;19;153562;-17
2022/05/19 02:37:00;;;;;;;2.47;1.85;;;;;;;;;;7333676;19;161867;-18
2022/05/19 02:39:31;;;;;;;3.55;1.90;;;;;;;;;;7333624;19;162518;-18
2022/05/19 02:42:03;;;;;;;2.25;1.75;;;;;;;;;;7333923;19;154215;-17
2022/05/19 02:44:36;;;;;;;2.85;1.70;;;;;;;;;;7333739;19;153530;-18
2022/05/19 02:47:08;;;;;;;2.75;1.92;;;;;;;;;;7333387;19;161852;-17
2022/05/19 02:49:39;;;;;;;2.08;1.55;;;;;;;;;;7332995;19;162417;-17
2022/05/19 02:52:12;;;;;;;;;;;;;;;;;;7331322;19;154037;-17
2022/05/19 02:54:43;;;;;;;2.65;1.88;;;;;;;;;;7332685;19;153455;-18
2022/05/19 02:57:14;;;;;;;2.50;1.75;;;;;;;;;;7332854;19;161839;-19
2022/05/19 02:59:48;;;;;;;2.70;1.95;;;;;;;;;;7332826;19;162354;-18
2022/05/19 03:02:19;;;;;;;2.85;1.80;;;;;;;;;;7333207;19;153960;-18
2022/05/19 03:04:51;;;;;;;3.55;1.77;;;;;;;;;;7332148;19;153616;-19
2022/05/19 03:07:22;;;;;;;2.15;1.65;;;;;;;;;;7331587;19;161810;-19
2022/05/19 03:09:54;;;;;;;2.83;2.00;;;;;;;;;;7332921;19;162586;-18
2022/05/19 03:12:25;;;;;;;3.85;2.13;;;;;;;;;;7333024;19;153988;-18
2022/05/19 03:15:00;;;;;;;2.13;1.63;;;;;;;;;;7331749;19;153628;-18
2022/05/19 03:17:31;;;;;;;2.45;1.73;;;;;;;;;;7332463;19;161963;-18
2022/05/19 03:20:03;;;;;;;3.28;2.03;;;;;;;;;;7331270;19;162490;-18
2022/05/19 03:22:34;;;;;;;4.43;1.92;;;;;;;;;;7332609;19;153984;-18
2022/05/19 03:25:07;;;;;;;2.63;1.73;;;;;;;;;;7332596;19;153625;-18
2022/05/19 03:27:41;;;;;;;2.53;2.20;;;;;;;;;;7332368;19;161826;-18
2022/05/19 03:30:17;;;;;;;1.75;1.60;;;;;;;;;;7332191;19;162536;-18
2022/05/19 03:32:48;;;;;;;2.50;1.88;;;;;;;;;;7332550;19;153973;-18
2022/05/19 03:35:20;;;;;;;2.28;1.77;;;;;;;;;;7331343;19;153455;-21
2022/05/19 03:37:51;;;;;;;1.65;1.55;;;;;;;;;;7332174;19;161888;-18
2022/05/19 03:40:23;;;;;;;2.97;1.85;;;;;;;;;;7332000;19;162418;-17
2022/05/19 03:42:54;;;;;;;4.22;1.73;;;;;;;;;;7332442;19;154054;-18
2022/05/19 03:45:28;;;;;;;2.20;1.63;;;;;;;;;;7332590;19;153575;-18
2022/05/19 03:48:00;;;;;;;2.80;1.90;;;;;;;;;;7331926;19;162521;-18
2022/05/19 03:50:32;;;;;;;2.35;1.80;;;;;;;;;;7333795;19;162393;-18
2022/05/19 03:53:03;;;;;;;2.78;1.70;;;;;;;;;;7332305;19;154294;-18
2022/05/19 03:55:35;;;;;;;2.53;1.85;;;;;;;;;;7330484;19;153735;-18
2022/05/19 03:58:06;;;;;;;2.47;1.70;;;;;;;;;;7332724;19;161807;-18
2022/05/19 04:00:40;;;;;;;1.65;1.45;;;;;;;;;;7331439;19;162366;-18
2022/05/19 04:03:11;;;;;;;1.90;1.58;;;;;;;;;;7331754;19;154660;-18
2022/05/19 04:05:43;;;;;;;2.70;1.65;;;;;;;;;;7334578;19;153643;-18
2022/05/19 04:08:14;;;;;;;3.63;1.92;;;;;;;;;;7328998;19;161915;-18
2022/05/19 04:10:48;;;;;;;1.95;1.40;;;;;;;;;;7331216;19;162191;-17
2022/05/19 04:13:19;;;;;;;2.63;1.75;;;;;;;;;;7331439;19;154047;-18
2022/05/19 04:15:53;;;;;;;1.70;1.60;;;;;;;;;;7330226;19;153583;-19
2022/05/19 04:18:25;;;;;;;1.80;1.40;;;;;;;;;;7330965;19;161966;-18
2022/05/19 04:20:56;;;;;;;1.77;1.63;;;;;;;;;;7330863;19;162377;-18
2022/05/19 04:23:27;;;;;;;2.22;1.60;;;;;;;;;;7335681;19;154190;-21
2022/05/19 04:25:59;;;;;;;2.47;1.65;;;;;;;;;;7331103;19;153624;-18
2022/05/19 04:28:32;;;;;;;1.85;1.65;;;;;;;;;;7330772;19;161893;-18
2022/05/19 04:31:06;;;;;;;3.17;2.20;;;;;;;;;;7330547;19;162526;-18
2022/05/19 04:33:37;;;;;;;2.03;1.40;;;;;;;;;;7331302;19;154039;-18
2022/05/19 04:36:09;;;;;;;1.65;1.55;;;;;;;;;;7329388;19;153509;-18
2022/05/19 04:38:40;;;;;;;2.23;1.70;;;;;;;;;;7331178;19;161901;-19
2022/05/19 04:41:12;;;;;;;1.83;1.73;;;;;;;;;;7334441;19;162427;-18
2022/05/19 04:43:43;;;;;;;1.52;1.42;;;;;;;;;;7330626;19;154058;-18
2022/05/19 04:46:17;;;;;;;2.05;1.58;;;;;;;;;;7330220;19;153593;-17
2022/05/19 04:48:48;;;;;;;1.65;1.30;;;;;;;;;;7330158;19;161883;-19
2022/05/19 04:51:20;;;;;;;1.63;1.50;;;;;;;;;;7329945;19;162391;-18
2022/05/19 04:53:51;;;;;;;1.88;1.25;;;;;;;;;;7330497;19;154266;-19
2022/05/19 04:56:23;;;;;;;2.00;1.63;;;;;;;;;;7329032;19;153625;-19
2022/05/19 04:58:54;;;;;;;1.83;1.73;;;;;;;;;;7329911;19;161854;-19
2022/05/19 05:01:28;;;;;;;2.00;1.40;;;;;;;;;;7329669;19;162531;-17
2022/05/19 05:04:03;;;;;;;1.75;1.40;;;;;;;;;;7330022;19;154180;-19
2022/05/19 05:06:34;;;;;;;1.60;1.50;;;;;;;;;;7328274;19;153724;-19
2022/05/19 05:09:06;;;;;;;1.88;1.48;;;;;;;;;;7329451;19;162184;-18
2022/05/19 05:11:39;;;;;;;1.73;1.37;;;;;;;;;;7328218;19;162415;-18
2022/05/19 05:14:10;;;;;;;2.33;1.60;;;;;;;;;;7328299;19;153817;-17
2022/05/19 05:16:44;;;;;;;1.55;1.30;;;;;;;;;;7328126;19;153610;-17
2022/05/19 05:19:18;;;;;;;2.05;1.50;;;;;;;;;;7329045;19;161952;-18
2022/05/19 05:21:50;;;;;;;1.75;1.58;;;;;;;;;;7327584;19;162867;-18
2022/05/19 05:24:22;;;;;;;1.57;1.47;;;;;;;;;;7329446;19;154360;-19
2022/05/19 05:26:53;;;;;;;1.88;1.50;;;;;;;;;;7329084;19;153507;-18
2022/05/19 05:29:25;;;;;;;3.28;1.70;;;;;;;;;;7327664;19;161910;-18
2022/05/19 05:31:59;;;;;;;2.72;1.40;;;;;;;;;;7328666;19;162413;-18
2022/05/19 05:34:30;;;;;;;1.35;1.25;;;;;;;;;;7328877;19;154057;-18
2022/05/19 05:37:03;;;;;;;3.22;1.50;;;;;;;;;;7326277;19;153613;-19
2022/05/19 05:39:35;;;;;;;1.80;1.40;;;;;;;;;;7328551;19;161983;-19
2022/05/19 05:42:07;;;;;;;2.95;1.73;;;;;;;;;;7331752;19;162582;-18
2022/05/19 05:44:38;;;;;;;4.30;1.75;;;;;;;;;;7328720;19;154268;-18
2022/05/19 05:47:12;;;;;;;6.43;2.03;;;;;;;;;;7328552;19;153444;-19
2022/05/19 05:49:44;;;;;;;4.63;1.85;;;;;;;;;;7328169;19;161958;-20
2022/05/19 05:52:15;;;;;;;2.90;1.50;;;;;;;;;;7327580;19;162422;-20
2022/05/19 05:54:47;;;;;;;4.53;2.03;;;;;;;;;;7324821;19;154143;-19
2022/05/19 05:57:18;;;;;;;5.18;2.15;;;;;;;;;;7326526;19;153565;-19
2022/05/19 05:59:49;;;;;;;3.38;1.70;;;;;;;;;;7326867;19;162159;-19
2022/05/19 06:02:23;;;;;;;6.28;2.20;;;;;;;;;;7326946;19;162393;-19
2022/05/19 06:04:54;;;;;;;3.60;1.98;;;;;;;;;;7328118;19;154304;-19
2022/05/19 06:07:27;;;;;;;10.40;2.30;;;;;;;;;;7325696;19;153652;-19
2022/05/19 06:09:59;;;;;;;;;;;;;;;;;;7327671;19;161974;-19
2022/05/19 06:12:30;;;;;;;4.22;2.08;;;;;;;;;;7327045;19;162529;-18
2022/05/19 06:15:03;;;;;;;3.78;2.15;;;;;;;;;;7327313;19;154014;-19
2022/05/19 06:17:39;;;;;;;8.52;2.30;;;;;;;;;;7325961;19;153540;-17
2022/05/19 06:20:13;;;;;;;3.83;2.00;;;;;;;;;;7326790;19;162152;-19
2022/05/19 06:22:46;;;;;;;7.32;1.85;;;;;;;;;;7326536;19;162407;-19
2022/05/19 06:25:19;;;;;;;5.45;2.22;;;;;;;;;;7326225;19;154276;-19
2022/05/19 06:27:51;;;;;;;5.35;2.05;;;;;;;;;;7331868;19;152944;-17
2022/05/19 06:30:24;;;;;;;4.75;2.05;;;;;;;;;;7333794;19;161863;-17
2022/05/19 06:32:59;;;;;;;4.50;1.55;;;;;;;;;;7333742;19;162423;-17
2022/05/19 06:35:32;;;;;;;3.90;1.63;;;;;;;;;;7333182;19;154056;-17
2022/05/19 06:38:04;;;;;;;2.35;1.45;;;;;;;;;;7332250;19;153637;-17
2022/05/19 06:40:35;;;;;;;2.78;1.50;;;;;;;;;;7332438;19;162099;-19
2022/05/19 06:43:10;;;;;;;4.00;2.13;;;;;;;;;;7332541;19;162674;-19
2022/05/19 06:45:46;;;;;;;5.43;1.88;;;;;;;;;;7334067;19;153993;-19
2022/05/19 06:48:20;;;;;;;2.20;1.60;;;;;;;;;;7334135;19;153571;-19
2022/05/19 06:50:51;;;;;;;3.08;1.60;;;;;;;;;;7333177;19;161877;-18
2022/05/19 06:53:31;;;;;;;2.40;1.45;;;;;;;;;;7333031;19;162572;-19
2022/05/19 06:56:00;;;;;;;3.03;1.67;;;;;;;;;;7333570;19;154188;-19
2022/05/19 06:58:32;;;;;;;3.60;1.80;;;;;;;;;;7330443;19;153711;-18
2022/05/19 07:01:03;;;;;;;1.70;1.40;;;;;;;;;;7333125;19;161790;-18
2022/05/19 07:03:37;;;;;;;2.55;1.75;;;;;;;;;;7331610;19;162359;-18
2022/05/19 07:06:08;;;;;;;5.00;1.73;;;;;;;;;;7333365;19;154786;-18
2022/05/19 07:08:41;;;;;;;3.47;1.58;;;;;;;;;;7330793;19;153761;-18
2022/05/19 07:11:24;;;;;;;4.22;1.77;;;;;;;;;;7333424;19;161765;-18
2022/05/19 07:14:01;;;;;;;5.25;1.92;;;;;;;;;;7333314;19;162438;-18
2022/05/19 07:16:34;;;;;;;3.50;1.55;;;;;;;;;;7333265;19;154191;-17
2022/05/19 07:21:51;;;;;;;4.15;1.80;;;;;;;;;;7332692;19;161794;-19
2022/05/19 07:24:24;;;;;;;3.38;2.13;;;;;;;;;;7332533;19;162632;-20
2022/05/19 07:26:57;;;;;;;4.37;1.97;;;;;;;;;;7332513;19;154268;-19
2022/05/19 07:29:32;;;;;;;3.80;1.58;;;;;;;;;;7330898;19;153564;-17
2022/05/19 07:32:03;;;;;;;3.15;1.83;;;;;;;;;;7332592;19;161785;-18
2022/05/19 07:34:39;;;;;;;4.20;1.67;;;;;;;;;;7331943;19;162488;-18
2022/05/19 07:37:11;;;;;;;2.08;1.55;;;;;;;;;;7331556;19;154323;-18
2022/05/19 07:39:50;;;;;;;4.35;1.55;;;;;;;;;;7332568;19;153511;-19
2022/05/19 07:42:22;;;;;;;2.00;1.35;;;;;;;;;;7332064;19;161816;-24
2022/05/19 07:44:55;;;;;;;1.97;1.63;;;;;;;;;;7333763;19;162328;-18
2022/05/19 07:47:29;;;;;;;2.42;1.50;;;;;;;;;;7332527;19;154223;-19
2022/05/19 07:50:03;;;;;;;2.55;1.40;;;;;;;;;;7334075;19;153562;-19
2022/05/19 07:52:37;;;;;;;4.97;1.60;;;;;;;;;;7334659;19;161851;-19
2022/05/19 07:55:10;;;;;;;2.50;1.58;;;;;;;;;;7334312;19;162944;-19
2022/05/19 07:57:50;;;;;;;2.63;1.77;;;;;;;;;;7331830;19;154068;-19
2022/05/19 08:00:23;;;;;;;2.80;1.67;;;;;;;;;;7336247;19;153639;-18
2022/05/19 08:02:54;;;;;;;5.18;1.48;;;;;;;;;;7331500;19;161893;-18
2022/05/19 08:05:28;;;;;;;4.43;1.52;;;;;;;;;;7335932;19;162546;-18
2022/05/19 08:08:00;;;;;;;2.30;1.30;;;;;;;;;;7328740;19;154417;-18
2022/05/19 08:10:31;;;;;;;2.92;1.58;;;;;;;;;;7331499;19;153488;-18
2022/05/19 08:15:50;;;;;;;1.40;1.13;;;;;;;;;;7330925;19;162553;-18
2022/05/19 08:18:23;;;;;;;4.15;1.80;;;;;;;;;;7330276;19;154024;-18
2022/05/19 08:20:59;;;;;;;4.25;1.63;;;;;;;;;;7331117;19;153761;-27
2022/05/19 08:23:34;;;;;;;2.90;1.55;;;;;;;;;;7329558;19;161909;-18
2022/05/19 08:26:08;;;;;;;3.05;1.80;;;;;;;;;;7330616;19;162387;-18
2022/05/19 08:28:42;;;;;;;2.00;1.33;;;;;;;;;;7330861;19;154209;-18
2022/05/19 08:31:18;;;;;;;4.60;1.45;;;;;;;;;;7330705;19;153646;-19
2022/05/19 08:33:51;;;;;;;2.55;1.42;;;;;;;;;;7328975;19;161996;-18
2022/05/19 08:36:28;;;;;;;3.80;1.35;;;;;;;;;;7330286;19;162649;-17
2022/05/19 08:38:59;;;;;;;3.15;1.60;;;;;;;;;;7329470;19;154514;-18
2022/05/19 08:41:33;;;;;;;3.83;1.30;;;;;;;;;;7330379;19;153800;-24
2022/05/19 08:44:09;;;;;;;1.15;1.13;;;;;;;;;;7329957;19;162107;-19
2022/05/19 08:46:42;;;;;;;3.45;1.25;;;;;;;;;;7329709;19;162346;-20
2022/05/19 08:49:21;;;;;;;2.05;1.25;;;;;;;;;;7328210;19;154106;-18
2022/05/19 08:52:02;;;;;;;4.38;1.55;;;;;;;;;;7330311;19;153589;-17
2022/05/19 08:54:35;;;;;;;2.00;1.45;;;;;;;;;;7329637;19;161702;-18
2022/05/19 08:57:08;;;;;;;;;;;;;;;;;;7330068;19;162490;-16
2022/05/19 08:59:51;;;;;;;2.67;1.00;;;;;;;;;;7327466;19;154121;-25
2022/05/19 09:02:26;;;;;;;;;;;;;;;;;;7333259;19;153613;-17
2022/05/19 09:05:07;;;;;;;1.52;1.10;;;;;;;;;;7330044;19;162220;-18
2022/05/19 09:08:00;;;;;;;2.40;1.30;;;;;;;;;;7327643;19;162487;-18
2022/05/19 09:10:51;;;;;;;2.95;1.35;;;;;;;;;;7329909;19;154053;-17
2022/05/19 09:13:39;;;;;;;3.45;1.40;;;;;;;;;;7329496;19;132522;-18
2022/05/19 09:16:15;;;;;;;2.20;1.52;;;;;;;;;;7330379;19;162074;-17
2022/05/19 09:18:49;;;;;;;1.75;0.93;;;;;;;;;;7332687;19;162417;-17
2022/05/19 09:21:21;;;;;;;2.05;1.30;;;;;;;;;;7329220;19;154001;-17
2022/05/19 09:23:55;;;;;;;1.92;1.38;;;;;;;;;;7327849;19;153763;-18
2022/05/19 09:26:49;;;;;;;1.30;1.10;;;;;;;;;;7330578;19;162002;-17
2022/05/19 09:29:24;;;;;;;3.00;1.20;;;;;;;;;;7328337;19;162423;-17
2022/05/19 09:31:58;;;;;;;2.10;1.38;;;;;;;;;;7328507;19;154181;-17
2022/05/19 09:34:32;;;;;;;1.48;1.20;;;;;;;;;;7328585;19;153615;-17
2022/05/19 09:37:10;;;;;;;2.05;1.38;;;;;;;;;;7332554;19;162044;-17
2022/05/19 09:39:54;;;;;;;1.42;1.00;;;;;;;;;;7326904;19;162732;-17
2022/05/19 09:42:33;;;;;;;1.27;1.17;;;;;;;;;;7327292;19;154172;-17
2022/05/19 09:45:06;;;;;;;2.30;1.10;;;;;;;;;;7328819;19;153554;-19
2022/05/19 09:47:45;;;;;;;1.30;1.20;;;;;;;;;;7327953;19;161794;-17
2022/05/19 09:50:20;;;;;;;4.18;1.35;;;;;;;;;;7327789;19;162364;-17
2022/05/19 09:52:52;;;;;;;1.20;0.95;;;;;;;;;;7328349;19;154164;-18
2022/05/19 09:55:27;;;;;;;2.27;1.20;;;;;;;;;;7328108;19;153334;-18
2022/05/19 09:58:02;;;;;;;1.73;1.20;;;;;;;;;;7328972;19;162197;-17
2022/05/19 10:00:53;;;;;;;2.53;1.13;;;;;;;;;;7328205;19;162377;-17
2022/05/19 10:03:29;;;;;;;2.57;1.27;;;;;;;;;;7334688;19;154160;-17
2022/05/19 10:06:07;;;;;;;1.15;1.05;;;;;;;;;;7335149;19;153557;-17
2022/05/19 10:08:41;;;;;;;1.05;0.95;;;;;;;;;;7334393;19;161844;-17
2022/05/19 10:11:27;;;;;;;2.88;1.20;;;;;;;;;;7335805;19;162504;-17
2022/05/19 10:14:06;;;;;;;1.50;1.10;;;;;;;;;;7337306;19;154361;-17
2022/05/19 10:16:50;;;;;;;2.50;1.17;;;;;;;;;;7336878;19;153880;-17
2022/05/19 10:19:36;;;;;;;1.30;1.10;;;;;;;;;;7334734;19;161832;-17
2022/05/19 10:22:34;;;;;;;3.42;1.35;;;;;;;;;;7333897;19;162348;-17
2022/05/19 10:25:17;;;;;;;1.75;0.88;;;;;;;;;;7334204;19;154053;-17
2022/05/19 10:31:06;;;;;;;1.52;1.30;;;;;;;;;;7337354;19;162074;-17
2022/05/19 10:33:59;;;;;;;1.75;1.13;;;;;;;;;;7333626;19;162313;-17
2022/05/19 10:36:40;;;;;;;2.15;1.17;;;;;;;;;;7332836;19;154030;-17
2022/05/19 10:39:35;;;;;;;1.58;1.20;;;;;;;;;;7332916;19;153518;-18
2022/05/19 10:42:16;;;;;;;1.88;0.80;;;;;;;;;;7333738;19;162096;-18
2022/05/19 10:45:07;;;;;;;2.22;1.20;;;;;;;;;;7336758;19;162436;-18
2022/05/19 10:47:49;;;;;;;1.23;1.13;;;;;;;;;;7333859;19;154273;-17
2022/05/19 10:50:29;;;;;;;1.95;1.15;;;;;;;;;;7333393;19;153522;-17
2022/05/19 10:53:27;;;;;;;2.97;1.20;;;;;;;;;;7332805;19;161824;-17
2022/05/19 10:56:13;;;;;;;1.02;0.90;;;;;;;;;;7333009;19;162807;-17
2022/05/19 10:59:11;;;;;;;1.20;1.10;;;;;;;;;;7333539;19;154047;-17
2022/05/19 11:02:15;;;;;;;1.73;1.08;;;;;;;;;;7331230;19;153642;-17
2022/05/19 11:05:01;;;;;;;2.17;0.90;;;;;;;;;;7333044;19;161923;-18
2022/05/19 11:07:39;;;;;;;1.17;1.08;;;;;;;;;;7330351;19;162425;-19
2022/05/19 11:10:24;;;;;;;1.67;1.00;;;;;;;;;;7333306;19;154109;-18
2022/05/19 11:13:06;;;;;;;2.63;1.02;;;;;;;;;;7331603;19;153601;-18
2022/05/19 11:15:42;;;;;;;2.28;0.85;;;;;;;;;;7331811;19;161822;-18
2022/05/19 11:18:22;;;;;;;1.10;1.00;;;;;;;;;;7332654;19;162383;-18
2022/05/19 11:21:06;;;;;;;2.08;1.25;;;;;;;;;;7331909;19;154450;-18
2022/05/19 11:23:50;;;;;;;1.83;0.93;;;;;;;;;;7333061;19;153501;-18
2022/05/19 11:26:29;;;;;;;2.42;1.20;;;;;;;;;;7331604;19;161958;-18
2022/05/19 11:29:12;;;;;;;2.08;1.25;;;;;;;;;;7332546;19;162400;-18
2022/05/19 11:31:49;;;;;;;1.92;1.10;;;;;;;;;;7332688;19;154084;-18
2022/05/19 11:34:30;;;;;;;11.63;1.30;;;;;;;;;;7332875;19;153542;-20
2022/05/19 11:37:07;;;;;;;1.00;0.90;;;;;;;;;;7334879;19;162039;-17
2022/05/19 11:39:43;;;;;;;1.17;0.93;;;;;;;;;;7332049;19;162455;-19
2022/05/19 11:42:32;;;;;;;4.47;0.80;;;;;;;;;;7332094;19;154034;-25
2022/05/19 11:45:10;;;;;;;2.95;1.00;;;;;;;;;;7332187;19;153545;-17
2022/05/19 11:56:22;;;;;;;4.40;1.65;;;;;;;;;;7331943;19;153777;-19
2022/05/19 11:58:55;;;;;;;3.17;1.10;;;;;;;;;;7331468;19;161979;-18
2022/05/19 12:01:31;;;;;;;4.07;1.25;;;;;;;;;;7328624;19;162493;-17
2022/05/19 12:04:12;;;;;;;1.35;1.10;;;;;;;;;;7333378;19;154012;-17
2022/05/19 12:06:51;;;;;;;3.67;1.35;;;;;;;;;;7334010;19;153705;-17
2022/05/19 12:09:31;;;;;;;4.00;1.02;;;;;;;;;;7332553;19;161824;-17
2022/05/19 12:12:07;;;;;;;2.75;1.15;;;;;;;;;;7331333;19;162359;-19
2022/05/19 12:14:44;;;;;;;1.92;1.25;;;;;;;;;;7331656;19;154131;-17
2022/05/19 12:17:33;;;;;;;2.08;1.15;;;;;;;;;;7331197;19;153528;-17
2022/05/19 12:20:24;;;;;;;2.55;1.05;;;;;;;;;;7330681;19;161859;-17
2022/05/19 12:23:24;;;;;;;3.08;1.45;;;;;;;;;;7334359;19;162569;-18
2022/05/19 12:25:57;;;;;;;2.50;0.90;;;;;;;;;;7331610;19;154184;-16
2022/05/19 12:28:51;;;;;;;3.20;1.42;;;;;;;;;;7330928;19;153591;-16
2022/05/19 12:34:15;;;;;;;3.33;1.20;;;;;;;;;;7330775;19;162686;-16
2022/05/19 12:36:50;;;;;;;3.72;1.30;;;;;;;;;;7332789;19;153923;-17
2022/05/19 12:39:44;;;;;;;2.17;1.13;;;;;;;;;;7329311;19;153523;-17
2022/05/19 12:42:40;;;;;;;2.20;1.17;;;;;;;;;;7330818;19;161785;-17
2022/05/19 12:45:21;;;;;;;3.50;1.75;;;;;;;;;;7329084;19;162681;-17
2022/05/19 12:48:01;;;;;;;2.58;0.95;;;;;;;;;;7329352;19;154109;-17
2022/05/19 12:50:49;;;;;;;2.83;1.25;;;;;;;;;;7329130;19;153481;-19
2022/05/19 12:53:43;;;;;;;1.17;1.05;;;;;;;;;;7328990;19;161861;-20
2022/05/19 12:56:55;;;;;;;3.95;1.60;;;;;;;;;;7328587;19;162478;-17
2022/05/19 12:59:49;;;;;;;4.13;1.48;;;;;;;;;;7326376;19;154125;-17
2022/05/19 13:02:28;;;;;;;2.45;1.00;;;;;;;;;;7330085;19;153702;-17
2022/05/19 13:05:04;;;;;;;3.28;1.20;;;;;;;;;;7328430;19;161843;-18
2022/05/19 13:07:39;;;;;;;3.22;1.20;;;;;;;;;;7326814;19;163213;-17
2022/05/19 13:10:18;;;;;;;9.48;1.27;;;;;;;;;;7328751;19;154296;-17
2022/05/19 13:13:00;;;;;;;4.57;1.17;;;;;;;;;;7328374;19;153589;-16
2022/05/19 13:15:35;;;;;;;3.80;1.43;;;;;;;;;;7329907;19;161895;-17
2022/05/19 13:18:09;;;;;;;7.70;2.33;;;;;;;;;;7329790;19;162419;-17
2022/05/19 13:20:43;;;;;;;15.63;5.32;;;;;;;;;;7330938;19;154025;-17
2022/05/19 13:23:26;;;;;;;34.42;11.95;;;;;;;;;;7326290;19;153525;-17
2022/05/19 13:26:04;;;;;;;52.40;18.08;;;;;;;;;;7328955;19;161760;-19
2022/05/19 13:31:28;;;;;;;78.30;27.60;;;;;;;;;;7329024;19;153917;-17
2022/05/19 13:34:01;;;;;;;85.30;30.90;;;;;;;;;;7329721;19;153662;-17
2022/05/19 13:36:36;;;;;;;87.00;34.00;;;;;;;;;;7332424;19;161811;-17
2022/05/19 13:39:10;;;;;;;88.15;34.15;;;;;;;;;;7335087;19;162571;-17
2022/05/19 13:41:47;;;;;;;73.68;28.85;;;;;;;;;;7337302;19;154123;-18
2022/05/19 13:44:31;;;;;;;79.68;28.25;;;;;;;;;;7334920;19;153594;-17
2022/05/19 13:47:03;;;;;;;69.22;26.08;;;;;;;;;;7336113;19;161517;-17
2022/05/19 13:49:34;;;;;;;53.63;19.80;;;;;;;;;;7333964;19;162593;-17
2022/05/19 13:52:09;;;;;;;43.05;17.00;;;;;;;;;;7335446;19;153922;-17
2022/05/19 13:54:44;;;;;;;43.67;17.73;;;;;;;;;;7335393;19;154262;-18
2022/05/19 13:57:25;;;;;;;39.97;14.40;;;;;;;;;;7334867;19;161854;-17
2022/05/19 14:00:03;;;;;;;31.88;13.50;;;;;;;;;;7333934;19;162318;-17
2022/05/19 14:02:43;;;;;;;40.05;14.50;;;;;;;;;;7333862;19;154048;-17
2022/05/19 14:05:24;;;;;;;37.50;14.23;;;;;;;;;;7335094;19;153742;-18
2022/05/19 14:07:56;;;;;;;32.97;13.57;;;;;;;;;;7331524;19;161956;-18
2022/05/19 14:10:42;;;;;;;33.40;14.20;;;;;;;;;;7334592;19;162288;-19
2022/05/19 14:13:15;;;;;;;34.70;13.80;;;;;;;;;;7334558;19;154164;-17
2022/05/19 14:15:51;;;;;;;;;;;;;;;;;;7335333;19;153785;-16
2022/05/19 14:18:26;;;;;;;32.47;12.43;;;;;;;;;;7334349;19;162051;-18
2022/05/19 14:21:04;;;;;;;30.95;12.07;;;;;;;;;;7334279;19;162540;-21
2022/05/19 14:23:40;;;;;;;26.52;10.85;;;;;;;;;;7332391;19;153794;-17
2022/05/19 14:26:13;;;;;;;27.30;11.75;;;;;;;;;;7334518;19;153620;-18
2022/05/19 14:28:49;;;;;;;26.35;11.13;;;;;;;;;;7334123;19;162064;-19
2022/05/19 14:31:32;;;;;;;22.80;10.43;;;;;;;;;;7334135;19;162280;-18
2022/05/19 14:34:12;;;;;;;21.50;8.40;;;;;;;;;;7333961;19;154156;-20
2022/05/19 14:36:47;;;;;;;20.10;6.78;;;;;;;;;;7333914;19;153996;-17
2022/05/19 14:39:27;;;;;;;16.45;6.93;;;;;;;;;;7333835;19;161971;-17
2022/05/19 14:44:47;;;;;;;20.45;6.63;;;;;;;;;;7333832;19;154056;-16
2022/05/19 14:47:24;;;;;;;25.75;6.93;;;;;;;;;;7331629;19;153605;-16
2022/05/19 14:49:59;;;;;;;17.67;7.10;;;;;;;;;;7333266;19;162002;-16
2022/05/19 14:52:34;;;;;;;13.48;5.35;;;;;;;;;;7332934;19;162253;-16
2022/05/19 14:55:11;;;;;;;11.57;5.40;;;;;;;;;;7333466;19;153993;-19
2022/05/19 14:57:42;;;;;;;13.02;5.82;;;;;;;;;;7333667;19;153636;-17
2022/05/19 15:00:14;;;;;;;16.50;5.43;;;;;;;;;;7333317;19;161957;-17
2022/05/19 15:02:49;;;;;;;15.77;6.07;;;;;;;;;;7332424;19;162468;-17
2022/05/19 15:05:22;;;;;;;12.48;4.32;;;;;;;;;;7333624;19;154151;-17
2022/05/19 15:07:59;;;;;;;10.95;5.32;;;;;;;;;;7330998;19;153800;-17
2022/05/19 15:10:31;;;;;;;12.68;5.13;;;;;;;;;;7332758;19;162036;-17
2022/05/19 15:13:04;;;;;;;9.98;4.60;;;;;;;;;;7332715;19;162408;-17
2022/05/19 15:15:38;;;;;;;15.02;4.78;;;;;;;;;;7331620;19;154449;-17
2022/05/19 15:18:14;;;;;;;12.40;5.00;;;;;;;;;;7332786;19;153588;-17
2022/05/19 15:20:47;;;;;;;9.80;4.22;;;;;;;;;;7332365;19;162112;-16
2022/05/19 15:23:20;;;;;;;11.93;4.70;;;;;;;;;;7331208;19;162540;-16
2022/05/19 15:25:52;;;;;;;7.13;3.60;;;;;;;;;;7332891;19;154058;-17
2022/05/19 15:28:23;;;;;;;12.10;4.45;;;;;;;;;;7331468;19;153740;-17
2022/05/19 15:30:54;;;;;;;12.45;4.93;;;;;;;;;;7332122;19;161834;-17
2022/05/19 15:33:29;;;;;;;9.27;3.92;;;;;;;;;;7331966;19;162515;-17
2022/05/19 15:36:00;;;;;;;6.57;2.88;;;;;;;;;;7332092;19;154067;-17
2022/05/19 15:38:32;;;;;;;6.75;3.88;;;;;;;;;;7336538;19;153512;-19
2022/05/19 15:41:04;;;;;;;8.85;3.40;;;;;;;;;;7331876;19;162157;-17
2022/05/19 15:43:35;;;;;;;6.82;3.40;;;;;;;;;;7330682;19;162579;-17
2022/05/19 15:46:07;;;;;;;7.50;3.38;;;;;;;;;;7332042;19;154300;-19